createdAt,value
2022-10-06T00:00:00.925Z,96249.25
2022-10-06T00:02:28.226Z,96240.53
2022-10-06T00:04:55.066Z,96251.63
2022-10-06T00:07:21.626Z,96250.34
2022-10-06T00:09:48.153Z,96254.59
2022-10-06T00:12:15.506Z,96247.41
2022-10-06T00:14:42.121Z,96249.66
2022-10-06T00:17:08.803Z,96258.34
2022-10-06T00:19:35.550Z,96265.47
2022-10-06T00:22:02.094Z,96264.50
2022-10-06T00:24:28.732Z,96268.66
2022-10-06T00:26:55.293Z,96262.69
2022-10-06T00:29:21.867Z,96268.00
2022-10-06T00:31:48.458Z,96254.31
2022-10-06T00:34:15.198Z,96263.94
2022-10-06T00:36:41.853Z,96267.63
2022-10-06T00:39:08.488Z,96270.06
2022-10-06T00:41:35.354Z,96276.78
2022-10-06T00:44:02.094Z,96274.97
2022-10-06T00:46:33.729Z,96276.38
2022-10-06T00:49:08.672Z,96277.06
2022-10-06T00:51:37.054Z,96281.66
2022-10-06T00:54:03.931Z,96275.97
2022-10-06T00:56:31.609Z,96276.75
2022-10-06T00:58:58.139Z,96271.47
2022-10-06T01:01:25.827Z,96279.06
2022-10-06T01:03:59.690Z,96283.03
2022-10-06T01:06:26.343Z,96275.00
2022-10-06T01:08:53.486Z,96284.84
2022-10-06T01:11:21.255Z,96281.13
2022-10-06T01:13:47.937Z,96284.84
2022-10-06T01:16:23.569Z,96284.84
2022-10-06T01:18:50.305Z,96287.06
2022-10-06T01:21:38.882Z,96283.91
2022-10-06T01:24:05.817Z,96292.09
2022-10-06T01:26:35.920Z,96287.50
2022-10-06T01:29:02.650Z,96274.47
2022-10-06T01:31:29.555Z,96286.28
2022-10-06T01:34:03.247Z,96280.66
2022-10-06T01:36:29.981Z,96288.75
2022-10-06T01:38:56.517Z,96275.44
2022-10-06T01:41:24.891Z,96287.97
2022-10-06T01:43:51.457Z,96296.66
2022-10-06T01:46:18.127Z,96295.41
2022-10-06T01:48:44.712Z,96302.50
2022-10-06T01:51:17.457Z,96304.41
2022-10-06T01:53:44.059Z,96306.16
2022-10-06T01:56:11.305Z,96286.34
2022-10-06T01:58:38.047Z,96306.06
2022-10-06T02:01:08.589Z,96313.22
2022-10-06T02:03:36.685Z,96314.34
2022-10-06T02:06:03.551Z,96307.41
2022-10-06T02:08:30.803Z,96313.44
2022-10-06T02:10:57.687Z,96305.72
2022-10-06T02:13:27.970Z,96325.44
2022-10-06T02:15:57.983Z,96330.19
2022-10-06T02:18:25.361Z,96327.56
2022-10-06T02:20:52.345Z,96314.66
2022-10-06T02:23:18.897Z,96313.19
2022-10-06T02:25:45.430Z,96314.81
2022-10-06T02:28:12.034Z,96314.53
2022-10-06T02:30:38.583Z,96314.97
2022-10-06T02:33:05.262Z,96324.50
2022-10-06T02:35:32.002Z,96325.63
2022-10-06T02:37:58.657Z,96330.13
2022-10-06T02:40:25.223Z,96321.34
2022-10-06T02:42:51.826Z,96327.69
2022-10-06T02:45:18.318Z,96330.75
2022-10-06T02:47:44.910Z,96328.81
2022-10-06T02:50:11.482Z,96318.28
2022-10-06T02:52:41.119Z,96327.34
2022-10-06T02:55:08.618Z,96327.69
2022-10-06T02:57:35.303Z,96324.97
2022-10-06T03:00:02.044Z,96327.09
2022-10-06T03:02:30.890Z,96333.91
2022-10-06T03:04:57.967Z,96340.97
2022-10-06T03:07:24.612Z,96338.34
2022-10-06T03:09:51.218Z,96339.69
2022-10-06T03:12:17.723Z,96333.59
2022-10-06T03:14:44.283Z,96332.75
2022-10-06T03:17:10.861Z,96347.78
2022-10-06T03:19:37.869Z,96338.44
2022-10-06T03:22:05.708Z,96342.59
2022-10-06T03:24:32.821Z,96341.34
2022-10-06T03:26:59.685Z,96340.91
2022-10-06T03:29:26.273Z,96355.34
2022-10-06T03:31:52.800Z,96347.53
2022-10-06T03:34:20.703Z,96356.00
2022-10-06T03:36:47.260Z,96359.75
2022-10-06T03:39:13.782Z,96361.78
2022-10-06T03:41:40.692Z,96364.88
2022-10-06T03:44:07.329Z,96359.59
2022-10-06T03:46:36.181Z,96366.47
2022-10-06T03:49:03.257Z,96363.06
2022-10-06T03:51:35.857Z,96364.16
2022-10-06T03:54:02.767Z,96375.00
2022-10-06T03:56:37.970Z,96375.38
2022-10-06T03:59:10.136Z,96382.66
2022-10-06T04:01:41.146Z,96379.44
2022-10-06T04:04:08.362Z,96383.59
2022-10-06T04:06:37.606Z,96384.44
2022-10-06T04:09:07.772Z,96363.66
2022-10-06T04:11:38.279Z,96372.28
2022-10-06T04:14:07.830Z,96372.13
2022-10-06T04:16:36.920Z,96376.84
2022-10-06T04:19:07.178Z,96378.75
2022-10-06T04:21:38.739Z,96385.38
2022-10-06T04:24:06.830Z,96390.97
2022-10-06T04:26:39.233Z,96383.78
2022-10-06T04:29:06.451Z,96377.41
2022-10-06T04:31:36.328Z,96373.41
2022-10-06T04:34:04.212Z,96381.72
2022-10-06T04:36:33.282Z,96374.75
2022-10-06T04:39:02.896Z,96390.28
2022-10-06T04:41:34.826Z,96389.53
2022-10-06T04:44:02.633Z,96387.91
2022-10-06T04:46:42.781Z,96396.03
2022-10-06T04:49:14.711Z,96397.25
2022-10-06T04:51:45.568Z,96392.91
2022-10-06T04:54:12.317Z,96401.13
2022-10-06T04:56:38.840Z,96410.00
2022-10-06T04:59:05.417Z,96413.34
2022-10-06T05:01:34.219Z,96410.63
2022-10-06T05:04:02.642Z,96419.97
2022-10-06T05:06:31.532Z,96411.56
2022-10-06T05:09:01.153Z,96421.06
2022-10-06T05:11:28.521Z,96429.16
2022-10-06T05:13:57.035Z,96423.94
2022-10-06T05:16:25.535Z,96421.66
2022-10-06T05:18:52.222Z,96407.31
2022-10-06T05:21:25.141Z,96428.91
2022-10-06T05:23:52.304Z,96442.09
2022-10-06T05:26:22.130Z,96439.97
2022-10-06T05:28:49.076Z,96447.19
2022-10-06T05:31:21.586Z,96446.25
2022-10-06T05:33:48.511Z,96450.88
2022-10-06T05:36:18.168Z,96442.50
2022-10-06T05:38:45.582Z,96442.56
2022-10-06T05:41:17.685Z,96438.53
2022-10-06T05:43:44.889Z,96445.28
2022-10-06T05:46:21.102Z,96446.44
2022-10-06T05:48:49.252Z,96450.97
2022-10-06T05:51:17.157Z,96433.66
2022-10-06T05:53:44.486Z,96446.38
2022-10-06T05:56:18.133Z,96456.31
2022-10-06T05:58:46.918Z,96449.50
2022-10-06T06:01:13.553Z,96456.81
2022-10-06T06:03:41.898Z,96452.00
2022-10-06T06:06:22.319Z,96460.13
2022-10-06T06:08:54.570Z,96452.47
2022-10-06T06:11:27.862Z,96461.41
2022-10-06T06:14:04.794Z,96452.78
2022-10-06T06:16:32.183Z,96458.56
2022-10-06T06:19:00.346Z,96447.91
2022-10-06T06:21:28.362Z,96446.56
2022-10-06T06:23:55.356Z,96448.56
2022-10-06T06:26:24.153Z,96452.09
2022-10-06T06:28:52.338Z,96449.91
2022-10-06T06:31:26.696Z,96443.22
2022-10-06T06:33:58.314Z,96448.78
2022-10-06T06:36:27.917Z,96465.66
2022-10-06T06:38:57.194Z,96469.19
2022-10-06T06:41:26.418Z,96464.50
2022-10-06T06:43:53.693Z,96466.31
2022-10-06T06:46:26.583Z,96473.34
2022-10-06T06:48:55.040Z,96475.13
2022-10-06T06:51:24.201Z,96474.50
2022-10-06T06:53:52.679Z,96469.72
2022-10-06T06:56:21.752Z,96460.28
2022-10-06T06:58:49.000Z,96481.13
2022-10-06T07:01:18.632Z,96488.38
2022-10-06T07:03:58.888Z,96482.81
2022-10-06T07:06:28.756Z,96487.22
2022-10-06T07:08:57.939Z,96482.81
2022-10-06T07:11:30.221Z,96480.72
2022-10-06T07:14:01.490Z,96488.38
2022-10-06T07:16:48.525Z,96484.75
2022-10-06T07:19:35.145Z,96495.50
2022-10-06T07:22:26.146Z,96485.38
2022-10-06T07:25:13.144Z,96482.09
2022-10-06T07:27:45.682Z,96480.31
2022-10-06T07:30:21.679Z,96478.53
2022-10-06T07:32:50.275Z,96477.56
2022-10-06T07:35:20.265Z,96483.03
2022-10-06T07:37:47.457Z,96491.44
2022-10-06T07:40:14.960Z,96486.84
2022-10-06T07:42:48.412Z,96487.63
2022-10-06T07:45:38.296Z,96490.38
2022-10-06T07:48:14.383Z,96490.09
2022-10-06T07:50:42.511Z,96498.16
2022-10-06T07:53:09.241Z,96500.53
2022-10-06T07:55:41.372Z,96489.56
2022-10-06T07:58:10.803Z,96496.06
2022-10-06T08:00:37.532Z,96492.69
2022-10-06T08:03:04.403Z,96493.53
2022-10-06T08:05:32.371Z,96504.47
2022-10-06T08:07:58.995Z,96501.16
2022-10-06T08:10:26.068Z,96505.94
2022-10-06T08:12:52.691Z,96500.78
2022-10-06T08:15:19.742Z,96490.59
2022-10-06T08:17:46.545Z,96491.34
2022-10-06T08:20:14.214Z,96498.19
2022-10-06T08:22:41.219Z,96480.69
2022-10-06T08:25:10.213Z,96483.69
2022-10-06T08:27:37.623Z,96492.78
2022-10-06T08:30:07.850Z,96485.84
2022-10-06T08:32:34.542Z,96500.56
2022-10-06T08:35:01.510Z,96496.97
2022-10-06T08:37:28.125Z,96489.16
2022-10-06T08:39:55.771Z,96490.50
2022-10-06T08:42:48.543Z,96491.78
2022-10-06T08:45:38.466Z,96494.06
2022-10-06T08:48:14.371Z,96491.41
2022-10-06T08:50:53.567Z,96483.25
2022-10-06T08:53:35.899Z,96503.38
2022-10-06T08:56:20.272Z,96494.69
2022-10-06T08:58:55.747Z,96501.34
2022-10-06T09:01:45.496Z,96498.41
2022-10-06T09:04:31.914Z,96501.25
2022-10-06T09:07:12.578Z,96497.06
2022-10-06T09:10:10.714Z,96502.75
2022-10-06T09:12:57.710Z,96496.91
2022-10-06T09:15:35.072Z,96496.03
2022-10-06T09:18:12.034Z,96498.59
2022-10-06T09:20:45.182Z,96495.59
2022-10-06T09:23:17.995Z,96479.28
2022-10-06T09:25:44.926Z,96488.38
2022-10-06T09:28:15.909Z,96491.47
2022-10-06T09:30:43.529Z,96488.88
2022-10-06T09:33:20.803Z,96491.88
2022-10-06T09:36:09.969Z,96494.63
2022-10-06T09:38:47.879Z,96487.13
2022-10-06T09:41:15.835Z,96493.91
2022-10-06T09:43:53.017Z,96495.50
2022-10-06T09:46:39.666Z,96490.09
2022-10-06T09:49:18.474Z,96496.25
2022-10-06T09:51:59.039Z,96497.00
2022-10-06T09:54:25.734Z,96483.97
2022-10-06T09:56:54.136Z,96482.03
2022-10-06T09:59:24.197Z,96480.47
2022-10-06T10:01:55.732Z,96477.34
2022-10-06T10:04:26.949Z,96477.72
2022-10-06T10:06:53.938Z,96471.56
2022-10-06T10:09:29.155Z,96480.69
2022-10-06T10:12:24.586Z,96469.25
2022-10-06T10:14:52.347Z,96464.56
2022-10-06T10:17:22.251Z,96466.88
2022-10-06T10:19:54.479Z,96464.44
2022-10-06T10:22:43.352Z,96471.75
2022-10-06T10:25:31.829Z,96473.56
2022-10-06T10:28:22.745Z,96472.28
2022-10-06T10:31:00.467Z,96456.00
2022-10-06T10:33:46.187Z,96476.00
2022-10-06T10:36:28.518Z,96467.19
2022-10-06T10:38:55.417Z,96471.03
2022-10-06T10:41:36.910Z,96473.38
2022-10-06T10:44:10.203Z,96462.66
2022-10-06T10:46:49.844Z,96459.97
2022-10-06T10:49:23.759Z,96461.00
2022-10-06T10:51:56.657Z,96447.75
2022-10-06T10:54:48.980Z,96453.19
2022-10-06T10:57:18.094Z,96451.03
2022-10-06T10:59:47.414Z,96449.50
2022-10-06T11:02:20.861Z,96458.16
2022-10-06T11:04:51.099Z,96457.56
2022-10-06T11:07:36.459Z,96461.19
2022-10-06T11:10:16.618Z,96453.47
2022-10-06T11:13:15.688Z,96455.06
2022-10-06T11:16:00.510Z,96451.78
2022-10-06T11:19:18.363Z,96455.22
2022-10-06T11:22:16.538Z,96459.34
2022-10-06T11:25:13.879Z,96449.75
2022-10-06T11:28:02.077Z,96449.69
2022-10-06T11:30:30.799Z,96437.41
2022-10-06T11:33:28.345Z,96428.50
2022-10-06T11:35:55.703Z,96431.22
2022-10-06T11:38:42.422Z,96431.22
2022-10-06T11:41:28.898Z,96434.09
2022-10-06T11:44:04.460Z,96421.19
2022-10-06T11:46:50.782Z,96430.06
2022-10-06T11:49:29.456Z,96427.34
2022-10-06T11:52:00.195Z,96428.56
2022-10-06T11:54:40.148Z,96422.28
2022-10-06T11:57:30.561Z,96419.41
2022-10-06T12:00:15.809Z,96415.34
2022-10-06T12:02:44.800Z,96418.16
2022-10-06T12:05:47.163Z,96411.81
2022-10-06T12:08:01.433Z,96419.38
2022-10-06T12:10:27.960Z,96410.38
2022-10-06T12:13:31.829Z,96411.72
2022-10-06T12:19:18.756Z,96403.16
2022-10-06T12:21:52.772Z,96392.03
2022-10-06T12:24:33.357Z,96392.81
2022-10-06T12:27:05.764Z,96386.16
2022-10-06T12:29:32.241Z,96389.41
2022-10-06T12:32:31.255Z,96391.06
2022-10-06T12:35:19.958Z,96384.94
2022-10-06T12:37:53.800Z,96381.00
2022-10-06T12:40:42.144Z,96383.16
2022-10-06T12:43:14.829Z,96386.75
2022-10-06T12:45:46.308Z,96378.94
2022-10-06T12:48:24.690Z,96389.19
2022-10-06T12:51:06.547Z,96374.50
2022-10-06T12:53:45.859Z,96375.81
2022-10-06T12:56:28.303Z,96365.16
2022-10-06T12:58:56.019Z,96367.19
2022-10-06T13:01:24.146Z,96365.22
2022-10-06T13:03:51.924Z,96360.91
2022-10-06T13:06:25.375Z,96367.72
2022-10-06T13:09:12.911Z,96363.63
2022-10-06T13:11:39.799Z,96360.06
2022-10-06T13:14:13.549Z,96363.44
2022-10-06T13:16:44.388Z,96360.72
2022-10-06T13:19:22.345Z,96362.69
2022-10-06T13:21:49.154Z,96357.81
2022-10-06T13:24:20.775Z,96356.16
2022-10-06T13:26:48.110Z,96355.63
2022-10-06T13:29:25.815Z,96358.97
2022-10-06T13:31:55.074Z,96357.66
2022-10-06T13:34:30.419Z,96356.03
2022-10-06T13:36:59.441Z,96350.00
2022-10-06T13:39:31.864Z,96356.91
2022-10-06T13:42:04.196Z,96346.06
2022-10-06T13:44:42.181Z,96348.00
2022-10-06T13:47:19.868Z,96339.34
2022-10-06T13:49:51.903Z,96344.56
2022-10-06T13:52:38.159Z,96347.59
2022-10-06T13:55:19.184Z,96347.56
2022-10-06T13:57:49.108Z,96345.38
2022-10-06T14:00:19.296Z,96335.75
2022-10-06T14:02:48.979Z,96343.06
2022-10-06T14:05:34.765Z,96339.38
2022-10-06T14:08:11.219Z,96343.06
2022-10-06T14:10:40.953Z,96339.13
2022-10-06T14:13:13.354Z,96329.88
2022-10-06T14:15:48.544Z,96332.50
2022-10-06T14:18:24.301Z,96329.66
2022-10-06T14:20:53.574Z,96337.03
2022-10-06T14:23:32.981Z,96338.88
2022-10-06T14:25:59.667Z,96337.53
2022-10-06T14:28:26.249Z,96338.13
2022-10-06T14:30:53.773Z,96335.69
2022-10-06T14:33:20.554Z,96331.66
2022-10-06T14:35:48.577Z,96338.13
2022-10-06T14:38:15.409Z,96329.47
2022-10-06T14:40:42.961Z,96328.13
2022-10-06T14:43:09.995Z,96327.31
2022-10-06T14:45:41.514Z,96322.59
2022-10-06T14:48:08.368Z,96328.13
2022-10-06T14:50:35.217Z,96316.59
2022-10-06T14:53:02.615Z,96326.78
2022-10-06T14:55:31.169Z,96315.22
2022-10-06T14:57:58.312Z,96321.59
2022-10-06T15:00:28.468Z,96323.09
2022-10-06T15:02:56.563Z,96319.25
2022-10-06T15:05:23.882Z,96314.72
2022-10-06T15:08:09.685Z,96309.88
2022-10-06T15:10:38.346Z,96318.00
2022-10-06T15:13:08.475Z,96317.84
2022-10-06T15:15:36.307Z,96310.47
2022-10-06T15:18:03.710Z,96307.56
2022-10-06T15:20:30.370Z,96292.06
2022-10-06T15:22:57.381Z,96313.13
2022-10-06T15:25:43.124Z,96303.16
2022-10-06T15:28:31.820Z,96313.84
2022-10-06T15:30:58.673Z,96313.13
2022-10-06T15:33:27.254Z,96295.72
2022-10-06T15:36:20.082Z,96304.53
2022-10-06T15:38:47.194Z,96307.53
2022-10-06T15:41:13.890Z,96300.06
2022-10-06T15:43:56.190Z,96300.56
2022-10-06T15:46:56.113Z,96297.50
2022-10-06T15:49:24.122Z,96296.28
2022-10-06T15:51:59.575Z,96284.66
2022-10-06T15:54:29.064Z,96291.16
2022-10-06T15:56:57.922Z,96295.38
2022-10-06T15:59:26.311Z,96292.78
2022-10-06T16:01:58.136Z,96294.94
2022-10-06T16:04:39.910Z,96285.09
2022-10-06T16:07:12.184Z,96298.72
2022-10-06T16:09:43.374Z,96290.25
2022-10-06T16:12:13.177Z,96301.97
2022-10-06T16:14:39.983Z,96296.75
2022-10-06T16:17:06.933Z,96297.47
2022-10-06T16:19:36.984Z,96292.75
2022-10-06T16:22:05.030Z,96297.28
2022-10-06T16:24:32.053Z,96284.09
2022-10-06T16:27:00.299Z,96303.00
2022-10-06T16:29:28.093Z,96288.28
2022-10-06T16:31:55.169Z,96306.06
2022-10-06T16:34:22.591Z,96305.66
2022-10-06T16:36:49.286Z,96295.22
2022-10-06T16:39:18.992Z,96313.34
2022-10-06T16:41:45.971Z,96298.78
2022-10-06T16:44:13.004Z,96298.94
2022-10-06T16:46:40.168Z,96303.66
2022-10-06T16:49:08.729Z,96299.63
2022-10-06T16:51:40.269Z,96309.59
2022-10-06T16:54:11.842Z,96304.78
2022-10-06T16:56:44.438Z,96311.28
2022-10-06T16:59:14.578Z,96313.25
2022-10-06T17:01:41.872Z,96312.50
2022-10-06T17:04:13.644Z,96312.88
2022-10-06T17:06:45.760Z,96317.44
2022-10-06T17:09:17.353Z,96326.53
2022-10-06T17:11:46.671Z,96325.75
2022-10-06T17:14:13.434Z,96318.94
2022-10-06T17:16:42.511Z,96320.81
2022-10-06T17:19:14.538Z,96329.81
2022-10-06T17:21:46.766Z,96327.91
2022-10-06T17:24:15.485Z,96319.56
2022-10-06T17:26:44.452Z,96321.03
2022-10-06T17:29:17.781Z,96330.06
2022-10-06T17:31:45.239Z,96330.81
2022-10-06T17:34:20.648Z,96341.38
2022-10-06T17:36:49.464Z,96340.25
2022-10-06T17:39:25.100Z,96340.56
2022-10-06T17:41:53.558Z,96341.28
2022-10-06T17:44:23.762Z,96339.38
2022-10-06T17:46:56.355Z,96344.59
2022-10-06T17:49:24.301Z,96343.44
2022-10-06T17:51:52.367Z,96345.69
2022-10-06T17:54:21.962Z,96317.09
2022-10-06T17:56:51.089Z,96340.63
2022-10-06T17:59:22.118Z,96345.50
2022-10-06T18:01:49.356Z,96340.22
2022-10-06T18:04:16.171Z,96323.13
2022-10-06T18:06:45.182Z,96336.38
2022-10-06T18:09:12.825Z,96325.69
2022-10-06T18:11:43.405Z,96328.69
2022-10-06T18:14:17.502Z,96326.38
2022-10-06T18:16:58.845Z,96326.34
2022-10-06T18:19:26.803Z,96330.06
2022-10-06T18:22:07.939Z,96331.53
2022-10-06T18:24:34.518Z,96347.81
2022-10-06T18:27:01.546Z,96345.09
2022-10-06T18:29:33.497Z,96344.31
2022-10-06T18:33:40.241Z,96352.22
2022-10-06T18:37:34.036Z,96351.06
2022-10-06T18:40:02.482Z,96350.22
2022-10-06T18:42:29.673Z,96348.31
2022-10-06T18:45:14.672Z,96345.25
2022-10-06T18:47:59.699Z,96351.63
2022-10-06T18:50:26.485Z,96331.09
2022-10-06T18:52:53.006Z,96340.56
2022-10-06T18:55:19.534Z,96348.56
2022-10-06T18:57:46.282Z,96345.13
2022-10-06T19:00:13.076Z,96355.28
2022-10-06T19:02:39.655Z,96347.75
2022-10-06T19:05:06.612Z,96348.50
2022-10-06T19:07:33.671Z,96346.19
2022-10-06T19:10:00.213Z,96335.50
2022-10-06T19:12:26.844Z,96349.19
2022-10-06T19:14:53.388Z,96345.34
2022-10-06T19:17:22.794Z,96353.25
2022-10-06T19:19:51.585Z,96347.53
2022-10-06T19:22:21.582Z,96343.34
2022-10-06T19:24:48.570Z,96347.03
2022-10-06T19:27:20.742Z,96345.09
2022-10-06T19:29:54.553Z,96348.13
2022-10-06T19:32:28.277Z,96348.13
2022-10-06T19:34:58.931Z,96348.84
2022-10-06T19:37:28.307Z,96347.31
2022-10-06T19:39:54.866Z,96345.81
2022-10-06T19:42:40.576Z,96342.75
2022-10-06T19:45:08.691Z,96344.63
2022-10-06T19:47:35.738Z,96346.13
2022-10-06T19:50:08.713Z,96348.72
2022-10-06T19:52:38.178Z,96341.88
2022-10-06T19:55:05.163Z,96347.88
2022-10-06T19:57:32.778Z,96342.59
2022-10-06T19:59:59.343Z,96350.13
2022-10-06T20:02:26.027Z,96345.84
2022-10-06T20:04:52.571Z,96358.72
2022-10-06T20:07:21.756Z,96354.63
2022-10-06T20:09:49.155Z,96352.41
2022-10-06T20:12:18.748Z,96348.59
2022-10-06T20:14:50.000Z,96349.09
2022-10-06T20:17:17.567Z,96355.25
2022-10-06T20:19:44.208Z,96344.16
2022-10-06T20:22:10.952Z,96348.50
2022-10-06T20:24:37.587Z,96344.81
2022-10-06T20:27:04.442Z,96352.78
2022-10-06T20:29:31.391Z,96353.59
2022-10-06T20:32:01.131Z,96344.88
2022-10-06T20:34:32.551Z,96349.03
2022-10-06T20:37:04.139Z,96348.75
2022-10-06T20:39:51.945Z,96343.56
2022-10-06T20:42:19.911Z,96345.09
2022-10-06T20:44:47.103Z,96348.06
2022-10-06T20:47:14.333Z,96344.28
2022-10-06T20:49:42.622Z,96351.81
2022-10-06T20:52:10.138Z,96349.47
2022-10-06T20:54:37.483Z,96338.13
2022-10-06T20:57:06.343Z,96341.22
2022-10-06T20:59:35.547Z,96333.19
2022-10-06T21:02:03.397Z,96341.91
2022-10-06T21:04:30.384Z,96336.31
2022-10-06T21:06:57.681Z,96338.25
2022-10-06T21:09:25.001Z,96328.31
2022-10-06T21:11:51.945Z,96338.97
2022-10-06T21:14:19.254Z,96340.44
2022-10-06T21:16:48.197Z,96329.06
2022-10-06T21:19:19.474Z,96332.13
2022-10-06T21:21:52.275Z,96333.56
2022-10-06T21:24:20.545Z,96319.88
2022-10-06T21:26:47.844Z,96324.09
2022-10-06T21:29:15.971Z,96324.88
2022-10-06T21:31:43.893Z,96319.16
2022-10-06T21:34:10.647Z,96321.41
2022-10-06T21:36:38.056Z,96324.69
2022-10-06T21:39:06.750Z,96327.03
2022-10-06T21:41:39.435Z,96328.16
2022-10-06T21:44:07.244Z,96328.16
2022-10-06T21:46:35.167Z,96324.38
2022-10-06T21:49:03.958Z,96317.91
2022-10-06T21:51:32.198Z,96314.44
2022-10-06T21:54:00.400Z,96315.19
2022-10-06T21:56:29.074Z,96310.97
2022-10-06T21:58:56.623Z,96318.16
2022-10-06T22:01:44.676Z,96317.38
2022-10-06T22:04:14.220Z,96319.31
2022-10-06T22:06:41.787Z,96311.25
2022-10-06T22:09:11.768Z,96308.28
2022-10-06T22:11:39.677Z,96296.59
2022-10-06T22:14:10.209Z,96299.53
2022-10-06T22:16:37.974Z,96304.56
2022-10-06T22:19:06.730Z,96303.06
2022-10-06T22:21:36.401Z,96306.09
2022-10-06T22:24:07.897Z,96302.28
2022-10-06T22:26:37.507Z,96305.19
2022-10-06T22:29:06.698Z,96299.75
2022-10-06T22:31:34.449Z,96303.44
2022-10-06T22:34:04.811Z,96297.34
2022-10-06T22:36:33.075Z,96299.41
2022-10-06T22:39:00.749Z,96298.84
2022-10-06T22:41:27.393Z,96299.06
2022-10-06T22:43:58.327Z,96298.91
2022-10-06T22:46:28.067Z,96299.91
2022-10-06T22:48:55.364Z,96298.25
2022-10-06T22:51:22.570Z,96305.97
2022-10-06T22:53:58.348Z,96295.19
2022-10-06T22:56:26.911Z,96287.59
2022-10-06T22:58:53.550Z,96299.53
2022-10-06T23:01:20.955Z,96295.00
2022-10-06T23:03:48.058Z,96293.72
2022-10-06T23:06:17.524Z,96282.34
2022-10-06T23:08:44.761Z,96285.56
2022-10-06T23:11:16.490Z,96283.66
2022-10-06T23:13:43.500Z,96279.41
2022-10-06T23:16:12.256Z,96270.94
2022-10-06T23:18:40.818Z,96274.69
2022-10-06T23:21:22.191Z,96274.00
2022-10-06T23:23:53.904Z,96279.22
2022-10-06T23:26:21.858Z,96280.38
2022-10-06T23:28:56.680Z,96271.34
2022-10-06T23:31:23.971Z,96276.44
2022-10-06T23:33:50.824Z,96264.91
2022-10-06T23:36:17.965Z,96275.97
2022-10-06T23:38:45.592Z,96270.41
2022-10-06T23:41:12.688Z,96268.75
2022-10-06T23:43:39.373Z,96267.13
2022-10-06T23:46:06.279Z,96266.84
2022-10-06T23:48:32.987Z,96256.44
2022-10-06T23:51:01.263Z,96261.88
2022-10-06T23:53:28.966Z,96265.03
2022-10-06T23:55:56.235Z,96261.72
2022-10-06T23:58:23.686Z,96262.31
